Time;durP1;ratioP1;P1;durP2;ratioP2;P2;SDS_P1;SDS_P2;PMS_P1;PMS_P2;Temp;Humidity;BMP_temperature;BMP_pressure;BME280_temperature;BME280_humidity;BME280_pressure;Samples;Min_cycle;Max_cycle;Signal;HPM_P1;HPM_P2
2021/06/08 00:00:58;;;;;;;4.70;2.80;;;;;;;28.82;38.60;97007.16;5037801;28;20588;-37
2021/06/08 00:03:23;;;;;;;3.28;2.80;;;;;;;28.83;38.75;97013.25;5032613;28;20032;-37
2021/06/08 00:05:48;;;;;;;3.38;2.85;;;;;;;28.82;38.57;97008.94;5033676;28;20033;-33
2021/06/08 00:08:14;;;;;;;3.50;3.05;;;;;;;28.84;38.58;97017.63;5032621;28;20029;-38
2021/06/08 00:10:39;;;;;;;3.55;2.92;;;;;;;28.83;38.56;97018.53;5032397;28;20228;-35
2021/06/08 00:13:05;;;;;;;3.75;3.30;;;;;;;28.83;38.60;97029.94;5037405;28;20029;-31
2021/06/08 00:15:30;;;;;;;3.72;3.10;;;;;;;28.83;38.76;97031.72;5033030;28;20027;-35
2021/06/08 00:17:55;;;;;;;3.10;2.80;;;;;;;28.82;38.45;97030.91;5025588;28;20040;-34
2021/06/08 00:20:21;;;;;;;3.75;3.13;;;;;;;28.83;38.56;97029.09;5028026;28;20028;-38
2021/06/08 00:22:46;;;;;;;3.80;3.00;;;;;;;28.84;38.70;97025.53;5024594;28;20091;-34
2021/06/08 00:25:12;;;;;;;5.30;3.33;;;;;;;28.84;38.70;97030.81;5038548;28;20611;-38
2021/06/08 00:27:38;;;;;;;3.38;2.95;;;;;;;28.83;38.64;97029.94;5038032;28;20142;-38
2021/06/08 00:30:04;;;;;;;3.13;2.80;;;;;;;28.84;38.46;97030.81;5024683;28;20082;-36
2021/06/08 00:32:29;;;;;;;3.47;2.80;;;;;;;28.83;38.67;97023.81;5036107;28;20999;-37
2021/06/08 00:34:55;;;;;;;3.40;2.78;;;;;;;28.84;38.39;97020.25;5031093;28;20033;-35
2021/06/08 00:37:20;;;;;;;2.95;2.65;;;;;;;28.84;38.71;97022.91;5031412;28;20075;-36
2021/06/08 00:39:45;;;;;;;4.32;2.83;;;;;;;28.83;38.50;97024.69;5027320;28;20036;-33
2021/06/08 00:42:11;;;;;;;4.07;2.78;;;;;;;28.83;38.51;97024.69;5031845;28;20086;-37
2021/06/08 00:44:36;;;;;;;3.33;2.70;;;;;;;28.83;38.64;97027.31;5037381;28;20427;-35
2021/06/08 00:47:02;;;;;;;3.08;2.78;;;;;;;28.83;38.61;97029.09;5035291;28;20506;-33
2021/06/08 00:49:27;;;;;;;3.00;2.50;;;;;;;28.83;38.56;97018.53;5032192;28;20039;-36
2021/06/08 00:51:53;;;;;;;3.67;2.70;;;;;;;28.83;38.34;97029.94;5024474;28;20039;-36
2021/06/08 00:54:18;;;;;;;3.05;2.45;;;;;;;28.80;38.33;97018.75;5029484;28;20016;-37
2021/06/08 00:56:44;;;;;;;3.40;2.67;;;;;;;28.85;38.28;97026.34;5026991;28;21990;-34
2021/06/08 00:59:09;;;;;;;2.72;2.53;;;;;;;28.83;38.45;97029.94;5032952;28;20215;-36
2021/06/08 01:01:35;;;;;;;3.17;2.67;;;;;;;28.83;38.36;97029.94;5044907;28;20049;-33
2021/06/08 01:04:04;;;;;;;3.45;2.65;;;;;;;28.83;38.37;97024.69;5022626;28;20078;-36
2021/06/08 01:06:33;;;;;;;2.90;2.40;;;;;;;28.84;38.34;97025.53;5022279;28;20648;-33
2021/06/08 01:08:58;;;;;;;3.03;2.60;;;;;;;28.83;38.41;97019.41;5042082;28;20036;-37
2021/06/08 01:11:24;;;;;;;2.97;2.45;;;;;;;28.83;38.58;97005.34;5033191;28;20230;-36
2021/06/08 01:13:49;;;;;;;2.88;2.50;;;;;;;28.83;38.54;97002.72;5030643;28;20033;-34
2021/06/08 01:16:15;;;;;;;2.63;2.35;;;;;;;28.82;38.27;96991.34;5034012;28;20043;-37
2021/06/08 01:18:40;;;;;;;2.95;2.33;;;;;;;28.83;38.48;96981.63;5012760;28;20036;-38
2021/06/08 01:21:09;;;;;;;2.95;2.47;;;;;;;28.84;38.31;96988.59;5003531;28;20040;-36
2021/06/08 01:23:35;;;;;;;2.97;2.50;;;;;;;28.85;38.27;96985.03;5024575;28;20028;-37
2021/06/08 01:26:00;;;;;;;2.53;2.30;;;;;;;28.85;38.38;96987.66;5035084;28;21092;-33
2021/06/08 01:28:26;;;;;;;2.50;2.30;;;;;;;28.84;38.69;96983.31;5023980;28;20029;-35
2021/06/08 01:30:52;;;;;;;2.63;2.40;;;;;;;28.84;38.64;96991.25;5038773;28;20718;-35
2021/06/08 01:33:17;;;;;;;2.95;2.08;;;;;;;28.84;38.47;96993.88;5025405;28;20088;-37
2021/06/08 01:35:43;;;;;;;2.60;2.40;;;;;;;28.84;38.37;96993.88;5001921;28;20656;-37
2021/06/08 01:38:08;;;;;;;2.20;2.00;;;;;;;28.83;38.39;96993.03;5021994;28;20742;-39
2021/06/08 01:40:34;;;;;;;4.13;2.30;;;;;;;28.85;38.46;96995.56;5022879;28;20050;-35
2021/06/08 01:42:59;;;;;;;2.42;2.20;;;;;;;28.83;38.45;97000.94;5004206;28;20041;-34
2021/06/08 01:45:25;;;;;;;2.53;2.30;;;;;;;28.85;38.31;96994.72;5017489;28;20032;-35
2021/06/08 01:47:50;;;;;;;3.08;2.30;;;;;;;28.84;38.57;96993.88;5032910;28;20609;-40
2021/06/08 01:50:15;;;;;;;2.17;1.98;;;;;;;28.82;38.32;96991.34;5023458;28;21004;-35
2021/06/08 01:52:59;;;;;;;3.65;2.47;;;;;;;28.83;38.54;96992.16;5036656;28;20035;-37
2021/06/08 01:55:31;;;;;;;2.40;2.20;;;;;;;28.84;38.25;96988.59;5033557;28;20036;-36
2021/06/08 01:58:12;;;;;;;3.05;2.50;;;;;;;28.81;38.36;96989.66;5026124;28;20029;-35
2021/06/08 02:00:52;;;;;;;2.67;2.22;;;;;;;28.83;38.32;96992.16;5004351;28;20155;-35
2021/06/08 02:03:24;;;;;;;8.07;3.00;;;;;;;28.83;38.47;96992.16;5025421;28;20021;-33
2021/06/08 02:05:58;;;;;;;2.45;2.25;;;;;;;28.82;38.38;96985.19;5017919;28;20048;-36
2021/06/08 02:08:50;;;;;;;2.10;1.90;;;;;;;28.81;38.60;96989.66;5023181;28;20033;-36
2021/06/08 02:11:20;;;;;;;2.75;2.10;;;;;;;28.83;38.32;96992.16;5025225;28;20021;-35
2021/06/08 02:14:05;;;;;;;5.95;2.30;;;;;;;28.82;38.59;96991.34;5033668;28;20796;-34
2021/06/08 02:16:39;;;;;;;2.53;1.90;;;;;;;28.83;38.30;96997.44;5026013;28;20115;-31
2021/06/08 02:19:06;;;;;;;2.85;2.25;;;;;;;28.83;38.57;96997.44;5005053;28;20043;-36
2021/06/08 02:21:36;;;;;;;2.40;2.20;;;;;;;28.82;38.46;96999.25;5020197;28;20072;-32
2021/06/08 02:24:02;;;;;;;2.22;2.03;;;;;;;28.82;38.62;96995.75;5026728;28;20585;-33
2021/06/08 02:26:28;;;;;;;2.40;2.20;;;;;;;28.82;38.51;96995.75;5030490;28;20062;-38
2021/06/08 02:28:54;;;;;;;2.40;2.20;;;;;;;28.82;38.36;97001.88;5031449;28;20121;-36
2021/06/08 02:31:20;;;;;;;2.58;2.10;;;;;;;28.83;38.49;97008.00;5028238;28;20801;-35
2021/06/08 02:33:48;;;;;;;2.40;1.95;;;;;;;28.82;38.37;97001.03;5044162;28;20035;-35
2021/06/08 02:36:13;;;;;;;2.00;1.85;;;;;;;28.82;38.56;97003.66;5011823;28;20024;-37
2021/06/08 02:38:39;;;;;;;2.10;1.90;;;;;;;28.82;38.45;97006.31;5022566;28;20094;-40
2021/06/08 02:41:04;;;;;;;1.80;1.70;;;;;;;28.82;38.29;97001.88;5020301;28;20049;-35
2021/06/08 02:43:30;;;;;;;2.10;1.92;;;;;;;28.82;38.52;96998.38;5028648;28;20032;-37
2021/06/08 02:45:55;;;;;;;2.42;2.00;;;;;;;28.82;38.41;97003.66;5035341;28;20036;-36
2021/06/08 02:48:21;;;;;;;2.33;2.13;;;;;;;28.82;38.62;97008.94;5019596;28;20181;-34
2021/06/08 02:50:47;;;;;;;2.13;1.92;;;;;;;28.82;38.38;97001.03;5021051;28;20017;-34
2021/06/08 02:53:14;;;;;;;2.10;1.90;;;;;;;28.82;38.44;97001.03;5028287;28;20025;-40
2021/06/08 02:55:39;;;;;;;1.45;1.35;;;;;;;28.82;38.33;97006.31;5021076;28;20095;-39
2021/06/08 02:58:05;;;;;;;2.05;1.85;;;;;;;28.82;38.45;97006.31;5023254;28;21028;-35
2021/06/08 03:00:30;;;;;;;2.42;1.90;;;;;;;28.82;38.54;97003.66;5017932;28;20045;-33
2021/06/08 03:02:57;;;;;;;2.80;1.85;;;;;;;28.81;38.45;96994.06;5016083;28;20392;-32
2021/06/08 03:05:26;;;;;;;1.80;1.70;;;;;;;28.81;38.57;96997.56;5024480;28;20037;-34
2021/06/08 03:07:53;;;;;;;2.83;1.90;;;;;;;28.82;38.60;97001.03;5004966;28;20033;-38
2021/06/08 03:10:19;;;;;;;2.92;1.92;;;;;;;28.82;38.59;97001.03;5023965;28;20024;-35
2021/06/08 03:12:47;;;;;;;1.88;1.75;;;;;;;28.83;38.54;97005.34;5025908;28;20032;-37
2021/06/08 03:15:12;;;;;;;1.73;1.63;;;;;;;28.83;38.29;97010.63;5029123;28;20869;-36
2021/06/08 03:17:40;;;;;;;2.60;1.73;;;;;;;28.83;38.42;97014.13;5009292;28;20103;-38
2021/06/08 03:20:11;;;;;;;1.98;1.70;;;;;;;28.83;38.24;97013.25;5028192;28;20164;-32
2021/06/08 03:22:36;;;;;;;2.00;1.75;;;;;;;28.82;38.52;97014.22;5028934;28;20483;-38
2021/06/08 03:25:02;;;;;;;3.15;1.70;;;;;;;28.83;38.19;97010.63;5010197;28;20102;-36
2021/06/08 03:27:27;;;;;;;1.80;1.70;;;;;;;28.83;38.32;97002.72;5022657;28;20029;-35
2021/06/08 03:29:53;;;;;;;1.80;1.70;;;;;;;28.83;38.55;97008.00;5035860;28;20040;-32
2021/06/08 03:32:18;;;;;;;2.10;1.90;;;;;;;28.83;38.35;97013.25;5014661;28;20040;-35
2021/06/08 03:34:44;;;;;;;1.80;1.70;;;;;;;28.83;38.26;97013.25;5024673;28;20114;-32
2021/06/08 03:37:09;;;;;;;1.77;1.67;;;;;;;28.82;38.32;97001.03;5023478;28;20033;-38
2021/06/08 03:39:37;;;;;;;1.83;1.70;;;;;;;28.82;38.35;97007.16;5009326;28;20025;-34
2021/06/08 03:42:03;;;;;;;2.47;1.80;;;;;;;28.83;38.25;97010.63;5029974;28;20229;-35
2021/06/08 03:44:28;;;;;;;2.00;1.80;;;;;;;28.82;38.21;97006.31;5019775;28;20029;-36
2021/06/08 03:46:54;;;;;;;2.72;1.80;;;;;;;28.82;38.33;97003.66;5028700;28;20210;-35
2021/06/08 03:49:20;;;;;;;1.80;1.70;;;;;;;28.83;38.32;97016.75;5028669;28;20696;-36
2021/06/08 03:51:48;;;;;;;2.03;1.83;;;;;;;28.83;38.34;97010.63;5033516;28;20048;-37
2021/06/08 03:54:13;;;;;;;2.20;1.75;;;;;;;28.83;38.35;97018.53;5032084;28;20174;-35
2021/06/08 03:56:41;;;;;;;1.88;1.70;;;;;;;28.83;38.39;97018.53;5018197;28;20495;-32
2021/06/08 03:59:09;;;;;;;1.70;1.60;;;;;;;28.83;38.33;97018.53;5037223;28;20052;-35
2021/06/08 04:01:34;;;;;;;1.60;1.45;;;;;;;28.82;38.26;97022.97;5022297;28;20075;-37
2021/06/08 04:04:00;;;;;;;1.75;1.65;;;;;;;28.82;38.28;97017.72;5022294;28;20028;-36
2021/06/08 04:06:25;;;;;;;1.60;1.50;;;;;;;28.81;38.35;97020.44;5032350;28;20024;-37
2021/06/08 04:08:50;;;;;;;3.50;1.60;;;;;;;28.82;38.22;97017.72;5013348;28;20033;-33
2021/06/08 04:11:19;;;;;;;1.60;1.50;;;;;;;28.83;38.11;97029.94;5034071;28;20021;-36
2021/06/08 04:13:45;;;;;;;3.15;1.60;;;;;;;28.83;38.45;97023.81;5046795;28;20037;-38
2021/06/08 04:16:10;;;;;;;2.58;1.88;;;;;;;28.83;38.37;97029.09;5018176;28;20067;-35
2021/06/08 04:18:36;;;;;;;1.58;1.35;;;;;;;28.83;38.22;97029.09;5034739;28;20029;-33
2021/06/08 04:21:02;;;;;;;1.88;1.42;;;;;;;28.83;38.30;97023.81;5012966;28;20041;-35
2021/06/08 04:23:27;;;;;;;1.50;1.40;;;;;;;28.82;38.44;97028.25;5027132;28;20053;-36
2021/06/08 04:25:53;;;;;;;1.13;1.10;;;;;;;28.83;38.24;97037.00;5034648;28;20033;-37
2021/06/08 04:28:22;;;;;;;1.73;1.63;;;;;;;28.83;38.13;97039.63;5032211;28;20075;-36
2021/06/08 04:30:48;;;;;;;1.77;1.52;;;;;;;28.82;38.28;97036.16;5024526;28;20061;-33
2021/06/08 04:33:14;;;;;;;1.40;1.30;;;;;;;28.83;38.44;97042.28;5033844;28;20798;-36
2021/06/08 04:35:41;;;;;;;2.28;1.52;;;;;;;28.83;38.30;97042.28;5033373;28;20414;-36
2021/06/08 04:38:07;;;;;;;4.63;1.40;;;;;;;28.83;38.27;97043.13;5030475;28;21486;-35
2021/06/08 04:40:32;;;;;;;2.65;1.50;;;;;;;28.82;38.24;97040.59;5036903;28;20039;-35
2021/06/08 04:42:58;;;;;;;1.70;1.60;;;;;;;28.83;38.60;97050.19;5006823;28;20040;-36
2021/06/08 04:45:23;;;;;;;3.05;1.60;;;;;;;28.83;38.29;97047.56;5035662;28;20066;-34
2021/06/08 04:47:48;;;;;;;1.95;1.50;;;;;;;28.83;38.33;97039.63;5015212;28;20994;-32
2021/06/08 04:50:14;;;;;;;1.50;1.40;;;;;;;28.82;38.27;97036.16;5031536;28;20036;-39
2021/06/08 04:52:40;;;;;;;2.03;1.77;;;;;;;28.82;38.28;97037.94;5045082;28;20036;-34
2021/06/08 04:55:06;;;;;;;2.22;1.60;;;;;;;28.83;38.13;97034.38;5032781;28;20602;-35
2021/06/08 04:57:32;;;;;;;1.73;1.63;;;;;;;28.83;38.22;97031.72;5021590;28;20218;-33
2021/06/08 05:00:06;;;;;;;1.60;1.42;;;;;;;28.83;38.14;97037.00;5018381;28;20045;-34
2021/06/08 05:02:31;;;;;;;1.77;1.63;;;;;;;28.82;38.27;97036.16;5021041;28;20128;-36
2021/06/08 05:04:58;;;;;;;2.20;1.88;;;;;;;28.83;38.21;97040.50;5030853;28;20354;-36
2021/06/08 05:07:23;;;;;;;1.60;1.50;;;;;;;28.83;38.18;97039.63;5022459;28;20475;-39
2021/06/08 05:09:49;;;;;;;1.60;1.50;;;;;;;28.82;38.45;97043.22;5029662;28;20021;-36
2021/06/08 05:12:16;;;;;;;1.45;1.35;;;;;;;28.82;38.25;97049.34;5027511;28;20116;-33
2021/06/08 05:14:46;;;;;;;1.60;1.50;;;;;;;28.82;38.39;97043.22;5044552;28;20033;-35
2021/06/08 05:17:12;;;;;;;1.70;1.60;;;;;;;28.83;38.39;97042.28;5032381;28;20099;-35
2021/06/08 05:19:38;;;;;;;1.60;1.50;;;;;;;28.82;38.23;97036.16;5023369;28;20048;-35
2021/06/08 05:22:03;;;;;;;1.42;1.33;;;;;;;28.79;38.36;97035.50;5008998;28;20725;-36
2021/06/08 05:24:29;;;;;;;1.80;1.50;;;;;;;28.83;38.36;97050.19;5035511;28;20045;-35
2021/06/08 05:26:54;;;;;;;1.70;1.50;;;;;;;28.83;38.13;97051.06;5042387;28;20047;-35
2021/06/08 05:29:22;;;;;;;2.85;1.48;;;;;;;28.82;38.07;97049.34;5036144;28;20355;-35
2021/06/08 05:31:47;;;;;;;2.17;1.70;;;;;;;28.82;38.30;97052.00;5021238;28;20039;-37
2021/06/08 05:34:13;;;;;;;1.92;1.75;;;;;;;28.83;38.27;97060.75;5026776;28;20029;-38
2021/06/08 05:36:38;;;;;;;2.05;1.85;;;;;;;28.83;38.35;97058.09;5026247;28;20021;-34
2021/06/08 05:39:08;;;;;;;2.53;2.25;;;;;;;28.82;38.30;97053.78;5030549;28;20465;-35
2021/06/08 05:41:34;;;;;;;1.52;1.30;;;;;;;28.82;38.21;97059.91;5021245;28;20064;-35
2021/06/08 05:43:59;;;;;;;1.85;1.55;;;;;;;28.81;38.14;97058.22;5025674;28;20141;-35
2021/06/08 05:46:28;;;;;;;2.00;1.80;;;;;;;28.83;38.17;97066.00;5031386;28;20158;-36
2021/06/08 05:48:54;;;;;;;2.75;2.00;;;;;;;28.82;38.13;97059.91;5023461;28;20422;-33
2021/06/08 05:51:19;;;;;;;2.47;2.00;;;;;;;28.82;38.11;97059.91;5020660;28;20024;-32
2021/06/08 05:53:45;;;;;;;6.05;2.13;;;;;;;28.84;38.25;97067.72;5028663;28;20955;-36
2021/06/08 05:56:11;;;;;;;3.40;2.13;;;;;;;28.83;38.26;97058.09;5028834;28;20032;-40
2021/06/08 05:58:36;;;;;;;2.67;2.00;;;;;;;28.83;38.23;97060.75;5016032;28;20038;-36
2021/06/08 06:01:03;;;;;;;3.58;2.22;;;;;;;28.83;38.21;97066.00;5020287;28;20432;-34
2021/06/08 06:03:28;;;;;;;2.35;2.15;;;;;;;28.83;38.05;97072.16;5022605;28;20545;-35
2021/06/08 06:05:55;;;;;;;2.42;2.22;;;;;;;28.83;38.05;97066.00;5010680;28;20020;-39
2021/06/08 06:08:20;;;;;;;3.28;2.00;;;;;;;28.79;38.11;97059.22;5031821;28;20528;-35
2021/06/08 06:10:46;;;;;;;3.35;2.63;;;;;;;28.83;38.24;97071.28;5025086;28;20070;-35
2021/06/08 06:13:15;;;;;;;2.72;2.40;;;;;;;28.83;38.07;97060.75;5031104;28;20029;-33
2021/06/08 06:15:41;;;;;;;15.15;3.72;;;;;;;28.82;38.38;97064.31;5025002;28;20037;-35
2021/06/08 06:18:08;;;;;;;13.25;6.18;;;;;;;28.81;38.77;97063.50;5024616;28;20062;-41
2021/06/08 06:20:33;;;;;;;7.78;3.92;;;;;;;28.82;38.72;97064.31;5028963;28;20047;-31
2021/06/08 06:22:59;;;;;;;7.88;4.18;;;;;;;28.81;38.51;97062.63;5022256;28;20492;-36
2021/06/08 06:25:24;;;;;;;7.65;5.78;;;;;;;28.83;38.49;97060.75;5021990;28;20028;-35
2021/06/08 06:27:50;;;;;;;5.32;4.40;;;;;;;28.82;38.54;97064.31;5030338;28;20431;-32
2021/06/08 06:30:15;;;;;;;8.75;5.00;;;;;;;28.82;38.40;97064.31;5001271;28;20110;-37
2021/06/08 06:32:41;;;;;;;7.95;4.80;;;;;;;28.81;38.52;97063.50;5023682;28;20025;-34
2021/06/08 06:35:08;;;;;;;4.88;3.88;;;;;;;28.82;38.52;97066.97;5021271;28;20028;-35
2021/06/08 06:37:35;;;;;;;6.22;3.33;;;;;;;28.82;38.38;97069.59;5034833;28;20062;-34
2021/06/08 06:40:00;;;;;;;6.85;3.60;;;;;;;28.82;38.35;97069.59;5020663;28;20417;-33
2021/06/08 06:42:30;;;;;;;4.95;3.92;;;;;;;28.81;38.23;97067.91;5024836;28;20028;-34
2021/06/08 06:44:56;;;;;;;3.55;3.15;;;;;;;28.82;38.11;97069.59;5014716;28;20812;-35
2021/06/08 06:47:22;;;;;;;5.07;3.30;;;;;;;28.83;38.17;97066.00;5017718;28;20040;-32
2021/06/08 06:49:47;;;;;;;5.05;4.35;;;;;;;28.83;38.04;97066.00;5004550;28;20024;-35
2021/06/08 06:52:13;;;;;;;5.07;3.47;;;;;;;28.82;38.19;97067.81;5019807;28;20624;-34
2021/06/08 06:54:41;;;;;;;3.50;3.20;;;;;;;28.82;38.15;97072.25;5002986;28;20040;-35
2021/06/08 06:57:06;;;;;;;5.00;3.67;;;;;;;28.82;38.04;97073.09;5023498;28;20033;-38
2021/06/08 06:59:32;;;;;;;5.05;3.63;;;;;;;28.79;38.17;97067.16;5021606;28;20055;-33
2021/06/08 07:01:58;;;;;;;4.65;3.67;;;;;;;28.83;38.15;97076.56;5021931;28;20153;-36
2021/06/08 07:04:24;;;;;;;5.43;3.95;;;;;;;28.82;38.35;97074.88;5038044;28;20504;-35
2021/06/08 07:06:49;;;;;;;4.15;3.40;;;;;;;28.83;38.03;97084.47;5028423;28;20625;-35
2021/06/08 07:09:15;;;;;;;5.22;4.43;;;;;;;28.82;38.02;97080.16;5017752;28;20586;-37
2021/06/08 07:11:40;;;;;;;5.07;4.50;;;;;;;28.82;38.06;97075.72;5019648;28;20652;-37
2021/06/08 07:14:05;;;;;;;6.00;4.70;;;;;;;28.83;38.25;97082.69;5017756;28;20094;-36
2021/06/08 07:16:31;;;;;;;7.60;4.20;;;;;;;28.83;38.11;97082.69;5021003;28;20429;-33
2021/06/08 07:18:56;;;;;;;4.38;3.58;;;;;;;28.83;38.15;97076.56;5019652;28;20028;-38
2021/06/08 07:21:23;;;;;;;7.38;3.90;;;;;;;28.84;38.29;97083.56;5029366;28;20554;-34
2021/06/08 07:23:53;;;;;;;6.72;3.60;;;;;;;28.83;38.17;97082.69;5021236;28;20029;-34
2021/06/08 07:26:18;;;;;;;4.90;3.60;;;;;;;28.83;38.26;97087.97;5023293;28;20028;-35
2021/06/08 07:28:45;;;;;;;6.55;4.35;;;;;;;28.84;38.11;97086.19;5023799;28;20047;-35
2021/06/08 07:31:13;;;;;;;6.45;4.65;;;;;;;28.85;38.26;97087.03;5037365;28;20065;-34
2021/06/08 07:33:49;;;;;;;7.05;4.20;;;;;;;28.85;38.17;97084.38;5022656;28;20403;-35
2021/06/08 07:36:20;;;;;;;10.95;5.03;;;;;;;28.85;38.17;97087.88;5016651;28;20516;-35
2021/06/08 07:38:48;;;;;;;8.57;4.18;;;;;;;28.86;38.19;97081.66;5023158;28;20089;-36
2021/06/08 07:41:17;;;;;;;9.13;4.82;;;;;;;28.85;38.25;97082.59;5024123;28;20087;-36
2021/06/08 07:43:54;;;;;;;8.60;4.85;;;;;;;28.85;38.23;97090.53;5036249;28;20033;-31
2021/06/08 07:46:19;;;;;;;6.88;4.18;;;;;;;28.85;38.31;97085.25;5018010;28;20056;-33
2021/06/08 07:48:45;;;;;;;7.43;4.53;;;;;;;28.85;38.31;97087.88;5003887;28;21083;-35
2021/06/08 07:51:11;;;;;;;8.88;5.03;;;;;;;28.87;38.03;97088.63;5019024;28;20029;-34
2021/06/08 07:53:36;;;;;;;10.48;4.93;;;;;;;28.86;38.06;97089.56;5039921;28;20359;-34
2021/06/08 07:56:02;;;;;;;7.28;4.43;;;;;;;28.87;38.11;97087.78;5022787;28;20033;-31
2021/06/08 07:58:28;;;;;;;10.40;5.95;;;;;;;28.87;38.09;97086.00;5020530;28;20574;-35
2021/06/08 08:00:56;;;;;;;12.43;6.22;;;;;;;28.87;38.08;97085.16;5025269;28;20119;-34
2021/06/08 08:03:28;;;;;;;7.78;5.60;;;;;;;28.88;38.18;97089.47;5029014;28;20032;-32
2021/06/08 08:05:58;;;;;;;10.00;5.55;;;;;;;28.89;38.11;97085.91;5018072;28;20040;-36
2021/06/08 08:08:24;;;;;;;7.38;5.45;;;;;;;28.88;38.04;97084.22;5026338;28;20669;-31
2021/06/08 08:10:51;;;;;;;11.40;6.50;;;;;;;28.88;38.09;97090.34;5018801;28;20031;-35
2021/06/08 08:13:21;;;;;;;9.45;5.80;;;;;;;28.88;38.13;97084.22;5036374;28;20758;-35
2021/06/08 08:15:46;;;;;;;9.73;5.95;;;;;;;28.89;38.16;97091.16;5024969;28;20060;-35
2021/06/08 08:18:12;;;;;;;13.55;6.93;;;;;;;28.89;38.42;97086.78;5027522;28;20028;-33
2021/06/08 08:20:45;;;;;;;14.77;6.63;;;;;;;-148.56;100.00;61375.16;5027764;28;20383;-28
2021/06/08 08:23:11;;;;;;;28.42;15.18;;;;;;;28.88;38.11;97092.97;5019456;28;20032;-34
2021/06/08 08:25:39;;;;;;;25.25;20.10;;;;;;;28.81;37.86;97094.28;5028956;28;20128;-35
2021/06/08 08:29:04;;;;;;;26.92;20.73;;;;;;;-148.56;100.00;61375.16;5027281;28;20021;-30
2021/06/08 08:32:10;;;;;;;23.67;20.60;;;;;;;28.81;37.86;97094.28;5031242;28;20684;-32
2021/06/08 08:34:37;;;;;;;25.15;20.33;;;;;;;28.39;38.51;97097.63;5037076;28;20033;-36
2021/06/08 08:37:03;;;;;;;26.00;19.95;;;;;;;28.29;38.91;97105.22;5023960;28;20025;-34
2021/06/08 08:39:28;;;;;;;20.05;16.45;;;;;;;28.23;39.00;97105.56;5028665;28;20521;-34
2021/06/08 08:41:54;;;;;;;23.38;16.20;;;;;;;28.18;39.23;97113.72;5027929;28;20956;-34
2021/06/08 08:44:19;;;;;;;21.45;14.65;;;;;;;28.16;39.06;97112.97;5039155;28;20115;-32
2021/06/08 08:46:44;;;;;;;18.23;14.05;;;;;;;28.16;39.17;97112.97;5036201;28;20017;-35
2021/06/08 08:49:10;;;;;;;19.02;13.82;;;;;;;28.17;39.17;97105.91;5031816;28;20040;-34
2021/06/08 08:51:38;;;;;;;19.40;13.02;;;;;;;28.18;39.03;97103.19;5049298;28;20036;-34
2021/06/08 08:54:04;;;;;;;14.95;12.45;;;;;;;28.21;39.04;97101.28;5039535;28;20056;-33
2021/06/08 08:56:39;;;;;;;15.63;11.82;;;;;;;28.24;39.18;97106.41;5038825;28;20036;-37
2021/06/08 08:59:07;;;;;;;15.23;12.50;;;;;;;28.26;38.88;97107.19;5039417;28;20063;-34
2021/06/08 09:01:33;;;;;;;15.05;11.13;;;;;;;28.29;38.91;97117.53;5033524;28;20052;-37
2021/06/08 09:03:59;;;;;;;14.75;11.88;;;;;;;28.31;38.90;97113.03;5041555;28;20086;-37
2021/06/08 09:06:24;;;;;;;13.73;10.70;;;;;;;28.34;38.87;97110.22;5041386;28;20881;-32
2021/06/08 09:08:49;;;;;;;15.65;11.05;;;;;;;28.37;38.63;97109.22;5032314;28;20028;-35
2021/06/08 09:11:15;;;;;;;11.75;10.35;;;;;;;28.38;38.84;97114.38;5034736;28;20032;-34
2021/06/08 09:13:40;;;;;;;11.32;10.13;;;;;;;28.41;38.48;97108.91;5033068;28;20025;-36
2021/06/08 09:16:09;;;;;;;13.57;10.20;;;;;;;28.43;38.66;97112.34;5029820;28;20651;-32
2021/06/08 09:18:35;;;;;;;14.38;10.60;;;;;;;28.45;38.67;97114.03;5037939;28;20961;-32
2021/06/08 09:21:18;;;;;;;11.77;9.82;;;;;;;28.47;38.53;97109.50;5032888;28;20063;-28
2021/06/08 09:23:43;;;;;;;13.45;10.85;;;;;;;28.49;38.44;97105.00;5039783;28;20904;-35
2021/06/08 09:26:09;;;;;;;11.20;9.25;;;;;;;28.50;38.44;97107.53;5028511;28;20028;-31
2021/06/08 09:28:36;;;;;;;12.70;10.43;;;;;;;28.52;38.39;97110.91;5020867;28;20116;-34
2021/06/08 09:31:03;;;;;;;11.05;9.57;;;;;;;28.54;38.30;97108.19;5023964;28;20036;-29
2021/06/08 09:33:32;;;;;;;15.02;9.50;;;;;;;28.56;38.45;97111.56;5025042;28;20055;-37
2021/06/08 09:36:06;;;;;;;12.65;9.75;;;;;;;28.56;38.28;97107.16;5022158;28;20040;-35
2021/06/08 09:38:36;;;;;;;12.52;9.75;;;;;;;28.60;38.46;97107.81;5022400;28;20443;-31
2021/06/08 09:41:11;;;;;;;11.38;10.15;;;;;;;28.61;38.40;97103.41;5025043;28;20028;-30
2021/06/08 09:43:50;;;;;;;11.63;10.43;;;;;;;28.63;38.24;97097.09;5027378;28;20036;-35
2021/06/08 09:46:15;;;;;;;13.45;9.95;;;;;;;28.65;38.43;97111.03;5038296;28;20139;-34
2021/06/08 09:48:53;;;;;;;11.38;9.73;;;;;;;28.67;38.37;97108.28;5025019;28;20978;-31
2021/06/08 09:51:19;;;;;;;13.52;10.02;;;;;;;28.69;38.44;97101.16;5028428;28;20082;-34
2021/06/08 09:53:44;;;;;;;12.23;10.07;;;;;;;28.70;38.35;97097.56;5028428;28;20020;-35
2021/06/08 09:56:10;;;;;;;12.10;9.98;;;;;;;28.72;38.45;97100.13;5027219;28;20578;-31
2021/06/08 09:58:51;;;;;;;12.63;8.93;;;;;;;28.72;38.48;97094.84;5031401;28;20039;-35
2021/06/08 10:01:23;;;;;;;10.13;8.77;;;;;;;28.73;38.62;97107.94;5044993;28;20118;-35
2021/06/08 10:04:00;;;;;;;11.05;8.60;;;;;;;28.75;38.34;97099.94;5027129;28;20383;-35
2021/06/08 10:06:36;;;;;;;11.38;8.85;;;;;;;28.75;38.31;97105.22;5033207;28;20024;-34
2021/06/08 10:09:04;;;;;;;11.68;8.93;;;;;;;28.75;38.41;97107.84;5036418;28;20041;-33
2021/06/08 10:11:31;;;;;;;15.00;9.00;;;;;;;28.76;38.39;97104.28;5036849;28;20239;-34
2021/06/08 10:14:08;;;;;;;20.27;10.98;;;;;;;28.77;38.44;97108.59;5035394;28;20037;-32
2021/06/08 10:16:33;;;;;;;30.45;12.15;;;;;;;28.78;38.38;97105.00;5048719;28;20021;-33
2021/06/08 10:18:59;;;;;;;45.83;16.25;;;;;;;28.80;38.45;97114.53;5033774;28;20542;-33
2021/06/08 10:21:45;;;;;;;42.83;16.98;;;;;;;28.82;38.55;97111.81;5035936;28;20052;-37
2021/06/08 10:24:12;;;;;;;37.30;15.88;;;;;;;28.82;38.52;97117.94;5037462;28;20028;-35
2021/06/08 10:26:40;;;;;;;40.95;18.33;;;;;;;28.83;38.60;97108.22;5033032;28;20116;-36
2021/06/08 10:29:09;;;;;;;37.88;16.33;;;;;;;28.84;38.58;97115.22;5031634;28;20112;-33
2021/06/08 10:31:36;;;;;;;38.70;16.88;;;;;;;28.86;38.58;97107.19;5029037;28;20044;-35
2021/06/08 10:34:04;;;;;;;36.25;16.13;;;;;;;28.86;38.73;97105.41;5031880;28;20326;-33
2021/06/08 10:36:30;;;;;;;33.72;14.95;;;;;;;28.87;38.80;97114.16;5035589;28;20291;-37
2021/06/08 10:38:56;;;;;;;34.83;14.95;;;;;;;28.88;38.57;97106.16;5043209;28;20097;-32
2021/06/08 10:41:21;;;;;;;39.85;15.43;;;;;;;28.89;38.61;97102.63;5023801;28;20635;-36
2021/06/08 10:43:46;;;;;;;35.25;14.63;;;;;;;28.89;38.76;97113.16;5045661;28;20021;-37
2021/06/08 10:46:23;;;;;;;30.77;13.85;;;;;;;28.91;38.82;97107.81;5044903;28;20059;-35
2021/06/08 10:48:49;;;;;;;32.63;14.40;;;;;;;28.91;38.61;97106.00;5031324;28;20139;-36
2021/06/08 10:51:16;;;;;;;31.92;12.73;;;;;;;28.92;38.96;97102.41;5048807;28;20025;-36
2021/06/08 10:53:50;;;;;;;32.78;13.85;;;;;;;28.94;38.91;97103.19;5045372;28;20033;-35
2021/06/08 10:56:24;;;;;;;32.55;12.68;;;;;;;28.95;38.85;97101.41;5029579;28;20056;-35
2021/06/08 10:58:50;;;;;;;29.38;12.63;;;;;;;28.94;38.89;97100.53;5029560;28;20386;-36
2021/06/08 11:01:42;;;;;;;26.88;12.20;;;;;;;28.95;39.05;97102.22;5041673;28;20052;-33
2021/06/08 11:04:09;;;;;;;28.13;12.05;;;;;;;28.97;38.88;97107.41;5028594;28;20046;-32
2021/06/08 11:06:45;;;;;;;23.75;11.23;;;;;;;28.98;39.04;97103.00;5031309;28;20037;-32
2021/06/08 11:09:14;;;;;;;24.92;11.50;;;;;;;28.98;39.11;97105.63;5023678;28;20990;-35
2021/06/08 11:11:50;;;;;;;21.77;11.27;;;;;;;29.00;39.06;97109.00;5028607;28;20036;-34
2021/06/08 11:17:02;;;;;;;22.35;11.15;;;;;;;28.99;39.08;97091.50;5032797;28;20569;-36
2021/06/08 11:19:53;;;;;;;21.90;10.73;;;;;;;29.02;38.99;97096.59;5049280;28;20053;-36
2021/06/08 11:22:42;;;;;;;28.10;11.50;;;;;;;29.03;39.16;97100.91;5033593;28;20044;-33
2021/06/08 11:25:28;;;;;;;20.33;9.13;;;;;;;29.04;39.04;97094.69;5031819;28;20053;-35
2021/06/08 11:27:53;;;;;;;19.27;10.00;;;;;;;29.05;39.23;97096.38;5032783;28;20028;-33
2021/06/08 11:30:43;;;;;;;22.92;10.05;;;;;;;29.06;39.24;97098.09;5034846;28;20060;-38
2021/06/08 11:33:26;;;;;;;20.65;9.70;;;;;;;29.06;39.13;97092.81;5032551;28;20045;-35
2021/06/08 11:35:52;;;;;;;16.30;9.70;;;;;;;29.06;39.08;97090.19;5042741;28;20725;-37